Time;durP1;ratioP1;P1;durP2;ratioP2;P2;SDS_P1;SDS_P2;PMS_P1;PMS_P2;Temp;Humidity;BMP_temperature;BMP_pressure;BME280_temperature;BME280_humidity;BME280_pressure;Samples;Min_cycle;Max_cycle;Signal;HPM_P1;HPM_P2
2022/12/14 00:01:15;;;;;;;20.23;13.03;;;-3.60;99.90;;;;;;4980546;28;20715;-63
2022/12/14 00:03:42;;;;;;;15.07;12.20;;;-3.60;99.90;;;;;;4973795;28;20208;-63
2022/12/14 00:06:18;;;;;;;17.27;12.30;;;-3.60;99.90;;;;;;4986263;28;20216;-64
2022/12/14 00:08:46;;;;;;;21.90;11.13;;;-3.70;99.90;;;;;;4977933;28;20216;-66
2022/12/14 00:11:15;;;;;;;16.23;11.73;;;-3.70;99.90;;;;;;4977199;28;20192;-65
2022/12/14 00:13:42;;;;;;;16.30;11.40;;;-3.70;99.90;;;;;;4980812;28;20580;-61
2022/12/14 00:16:10;;;;;;;16.07;10.80;;;-3.70;99.90;;;;;;4985688;28;20196;-61
2022/12/14 00:18:37;;;;;;;16.90;12.13;;;-3.70;99.90;;;;;;4979006;28;20264;-61
2022/12/14 00:21:10;;;;;;;15.13;10.90;;;-3.70;99.90;;;;;;4983939;28;20998;-64
2022/12/14 00:23:37;;;;;;;20.97;12.60;;;-3.70;99.90;;;;;;4985316;28;20288;-63
2022/12/14 00:26:14;;;;;;;16.47;11.63;;;-3.70;99.90;;;;;;4984675;28;20202;-64
2022/12/14 00:28:41;;;;;;;18.00;11.70;;;-3.70;99.90;;;;;;4985670;28;20211;-62
2022/12/14 00:31:07;;;;;;;15.40;12.07;;;-3.70;99.90;;;;;;4982703;28;20550;-62
2022/12/14 00:33:34;;;;;;;17.03;11.70;;;-3.70;99.90;;;;;;4983712;28;20564;-61
2022/12/14 00:36:01;;;;;;;16.73;11.73;;;-3.70;99.90;;;;;;4986946;28;20220;-60
2022/12/14 00:38:27;;;;;;;17.70;12.70;;;-3.70;99.90;;;;;;4981948;28;20212;-62
2022/12/14 00:40:54;;;;;;;17.73;12.70;;;-3.70;99.90;;;;;;4981050;28;20930;-61
2022/12/14 00:43:23;;;;;;;17.80;11.53;;;-3.70;99.90;;;;;;4973924;28;20205;-63
2022/12/14 00:45:50;;;;;;;15.77;11.30;;;-3.70;99.90;;;;;;4971956;28;20201;-65
2022/12/14 00:48:17;;;;;;;21.93;12.47;;;-3.80;99.90;;;;;;4976713;28;20206;-67
2022/12/14 00:50:47;;;;;;;19.07;12.17;;;-3.80;99.90;;;;;;4970955;28;20200;-71
2022/12/14 00:53:13;;;;;;;16.10;12.27;;;-3.80;99.90;;;;;;4982449;28;20672;-63
2022/12/14 00:55:40;;;;;;;20.40;12.60;;;-3.60;99.90;;;;;;4979956;28;20291;-63
2022/12/14 00:58:08;;;;;;;17.90;12.10;;;-3.40;99.90;;;;;;4984134;28;20197;-61
2022/12/14 01:00:34;;;;;;;19.20;13.30;;;-3.20;99.90;;;;;;4977243;28;20201;-79
2022/12/14 01:03:00;;;;;;;21.73;12.60;;;-3.10;99.90;;;;;;4971745;28;20204;-66
2022/12/14 01:05:26;;;;;;;19.20;13.33;;;-3.10;99.90;;;;;;4978475;28;20936;-63
2022/12/14 01:07:51;;;;;;;16.97;12.20;;;-3.20;99.90;;;;;;4975823;28;20208;-69
2022/12/14 01:10:17;;;;;;;18.80;12.70;;;-3.20;99.90;;;;;;4981383;28;20720;-71
2022/12/14 01:12:43;;;;;;;21.47;12.70;;;-3.30;99.90;;;;;;4978672;28;20192;-68
2022/12/14 01:15:09;;;;;;;19.80;13.67;;;-3.40;99.90;;;;;;4974681;28;20201;-65
2022/12/14 01:17:35;;;;;;;17.47;12.20;;;-3.50;99.90;;;;;;4975002;28;20200;-66
2022/12/14 01:20:00;;;;;;;21.10;13.20;;;-3.60;99.90;;;;;;4981307;28;20215;-67
2022/12/14 01:22:26;;;;;;;20.20;13.87;;;-3.60;99.90;;;;;;4980308;28;20207;-67
2022/12/14 01:24:52;;;;;;;20.73;13.30;;;-3.60;99.90;;;;;;4979316;28;20355;-64
2022/12/14 01:27:17;;;;;;;18.40;13.43;;;-3.60;99.90;;;;;;4984221;28;20558;-62
2022/12/14 01:29:43;;;;;;;21.73;13.83;;;-3.70;99.90;;;;;;4980847;28;20637;-62
2022/12/14 01:32:09;;;;;;;18.23;13.17;;;-3.70;99.90;;;;;;4981682;28;20725;-62
2022/12/14 01:34:35;;;;;;;20.70;14.57;;;-3.80;99.90;;;;;;4980195;28;20658;-62
2022/12/14 01:37:01;;;;;;;17.00;13.13;;;-3.90;99.90;;;;;;4979913;28;20357;-61
2022/12/14 01:39:26;;;;;;;21.70;14.23;;;-3.90;99.90;;;;;;4978098;28;20208;-65
2022/12/14 01:41:52;;;;;;;21.20;15.13;;;-3.90;99.90;;;;;;4979244;28;20223;-67
2022/12/14 01:44:18;;;;;;;22.93;15.03;;;-3.90;99.90;;;;;;4979600;28;20527;-62
2022/12/14 01:47:00;;;;;;;17.73;12.20;;;-3.90;99.90;;;;;;4977884;28;20228;-62
2022/12/14 01:49:37;;;;;;;22.43;14.63;;;-3.90;99.90;;;;;;4977792;28;20270;-64
2022/12/14 01:52:13;;;;;;;23.20;15.40;;;-4.00;99.90;;;;;;4982207;28;20242;-64
2022/12/14 01:54:53;;;;;;;21.07;13.60;;;-4.00;99.90;;;;;;4977940;28;20207;-64
2022/12/14 01:57:24;;;;;;;19.40;15.30;;;-4.00;99.90;;;;;;4982049;28;20286;-63
2022/12/14 01:59:50;;;;;;;18.77;12.80;;;-4.00;99.90;;;;;;4968783;28;20197;-61
2022/12/14 02:02:17;;;;;;;21.83;14.57;;;-4.00;99.90;;;;;;4975389;28;20219;-68
2022/12/14 02:04:48;;;;;;;20.10;14.50;;;-4.00;99.90;;;;;;4985468;28;20279;-68
2022/12/14 02:07:16;;;;;;;17.60;13.67;;;-4.00;99.90;;;;;;4979334;28;20212;-63
2022/12/14 02:09:43;;;;;;;22.90;15.97;;;-4.00;99.90;;;;;;4975432;28;20223;-65
2022/12/14 02:12:39;;;;;;;21.70;14.10;;;-4.00;99.90;;;;;;4981400;28;20200;-67
2022/12/14 02:15:05;;;;;;;19.47;13.93;;;-4.10;99.90;;;;;;4978709;28;20825;-65
2022/12/14 02:17:30;;;;;;;26.43;14.07;;;-4.10;99.90;;;;;;4979884;28;20224;-67
2022/12/14 02:19:57;;;;;;;20.20;13.77;;;-4.10;99.90;;;;;;4979882;28;20242;-68
2022/12/14 02:22:55;;;;;;;20.37;13.63;;;-4.10;99.90;;;;;;4982355;28;20220;-63
2022/12/14 02:25:56;;;;;;;22.43;15.00;;;-4.10;99.90;;;;;;4983639;28;20204;-68
2022/12/14 02:29:18;;;;;;;20.70;14.17;;;-4.20;99.90;;;;;;4957905;28;20231;-66
2022/12/14 02:32:20;;;;;;;21.63;13.67;;;-4.20;99.90;;;;;;4978578;28;20225;-68
2022/12/14 02:35:07;;;;;;;24.40;15.27;;;-4.30;99.90;;;;;;4976998;28;20195;-56
2022/12/14 02:37:51;;;;;;;20.00;13.40;;;-4.30;99.90;;;;;;4977025;28;20710;-57
2022/12/14 02:40:38;;;;;;;21.50;13.47;;;-4.30;99.90;;;;;;4976209;28;20599;-61
2022/12/14 02:43:36;;;;;;;20.30;14.30;;;-4.40;99.90;;;;;;4974856;28;20192;-55
2022/12/14 02:46:12;;;;;;;20.93;13.93;;;-4.30;99.90;;;;;;4975702;28;20200;-55
2022/12/14 02:48:59;;;;;;;20.27;14.43;;;-4.40;99.90;;;;;;4973538;28;20219;-55
2022/12/14 02:51:30;;;;;;;20.03;13.60;;;-4.40;99.90;;;;;;4976317;28;20448;-55
2022/12/14 02:54:08;;;;;;;24.53;14.23;;;-4.40;99.90;;;;;;4984165;28;20292;-55
2022/12/14 02:56:50;;;;;;;19.40;13.13;;;-4.50;99.90;;;;;;4980491;28;20228;-54
2022/12/14 02:59:17;;;;;;;20.90;14.10;;;-4.50;99.90;;;;;;4977188;28;20312;-55
2022/12/14 03:01:45;;;;;;;22.57;13.83;;;-4.50;99.90;;;;;;4978111;28;20216;-52
2022/12/14 03:04:10;;;;;;;21.27;15.50;;;-4.60;99.90;;;;;;4977035;28;20208;-53
2022/12/14 03:06:36;;;;;;;21.30;15.60;;;-4.60;99.90;;;;;;4978718;28;20236;-53
2022/12/14 03:09:12;;;;;;;22.47;15.73;;;-4.60;99.90;;;;;;4978708;28;20714;-54
2022/12/14 03:12:06;;;;;;;19.70;14.03;;;-4.60;99.90;;;;;;4974856;28;20192;-54
2022/12/14 03:14:37;;;;;;;24.23;15.17;;;-4.60;99.90;;;;;;4976259;28;20228;-54
2022/12/14 03:17:13;;;;;;;21.60;13.70;;;-4.50;99.90;;;;;;4978137;28;20197;-53
2022/12/14 03:19:47;;;;;;;27.00;17.23;;;-4.50;99.90;;;;;;4976655;28;20541;-54
2022/12/14 03:22:22;;;;;;;19.37;13.67;;;-4.60;99.90;;;;;;4978286;28;20210;-54
2022/12/14 03:24:52;;;;;;;20.90;15.67;;;-4.60;99.90;;;;;;4978594;28;20204;-55
2022/12/14 03:27:20;;;;;;;22.37;14.03;;;-4.60;99.90;;;;;;4977820;28;20640;-54
2022/12/14 03:29:54;;;;;;;23.83;14.73;;;-4.60;99.90;;;;;;4978010;28;20685;-53
2022/12/14 03:32:23;;;;;;;20.13;13.10;;;-4.60;99.90;;;;;;4979158;28;20578;-57
2022/12/14 03:35:02;;;;;;;20.77;14.10;;;-4.60;99.90;;;;;;4975198;28;20208;-55
2022/12/14 03:37:43;;;;;;;23.73;15.83;;;-4.60;99.90;;;;;;4978477;28;20220;-54
2022/12/14 03:40:11;;;;;;;25.73;15.73;;;-4.60;99.90;;;;;;4975211;28;20979;-55
2022/12/14 03:42:58;;;;;;;20.33;15.53;;;-4.60;99.90;;;;;;4977637;28;20205;-54
2022/12/14 03:45:58;;;;;;;17.93;14.10;;;-4.60;99.90;;;;;;4975339;28;20225;-55
2022/12/14 03:48:32;;;;;;;23.80;14.90;;;-4.70;99.90;;;;;;4975655;28;20793;-54
2022/12/14 03:51:21;;;;;;;20.23;13.93;;;-4.70;99.90;;;;;;4975560;28;20207;-61
2022/12/14 03:54:08;;;;;;;21.47;15.10;;;-4.70;99.90;;;;;;4975698;28;20228;-54
2022/12/14 03:56:45;;;;;;;19.80;13.63;;;-4.70;99.90;;;;;;4977425;28;20627;-54
2022/12/14 03:59:19;;;;;;;25.17;16.77;;;-4.70;99.90;;;;;;4973196;28;20263;-54
2022/12/14 04:02:01;;;;;;;17.97;13.77;;;-4.80;99.90;;;;;;4977227;28;20211;-54
2022/12/14 04:04:41;;;;;;;22.20;14.57;;;-4.80;99.90;;;;;;4976485;28;20267;-54
2022/12/14 04:07:20;;;;;;;21.83;15.23;;;-4.80;99.90;;;;;;4977563;28;20234;-54
2022/12/14 04:09:55;;;;;;;25.33;15.77;;;-4.80;99.90;;;;;;4977592;28;20394;-53
2022/12/14 04:21:21;;;;;;;23.17;14.50;;;-4.90;99.90;;;;;;4976669;28;20208;-57
2022/12/14 04:26:44;;;;;;;23.10;14.93;;;-4.90;99.90;;;;;;4974246;28;20228;-53
2022/12/14 04:32:22;;;;;;;24.43;15.97;;;-4.90;99.90;;;;;;4975280;28;20215;-53
2022/12/14 04:34:53;;;;;;;19.30;15.10;;;-4.90;99.90;;;;;;4975551;28;20212;-55
2022/12/14 04:37:21;;;;;;;22.57;15.10;;;-5.00;99.90;;;;;;4976595;28;20311;-55
2022/12/14 04:39:55;;;;;;;21.13;16.10;;;-5.00;99.90;;;;;;4972468;28;20201;-53
2022/12/14 04:42:30;;;;;;;24.37;14.07;;;-5.00;99.90;;;;;;4976883;28;20275;-53
2022/12/14 04:45:06;;;;;;;23.40;15.90;;;-5.00;99.90;;;;;;4975045;28;20208;-55
2022/12/14 04:47:39;;;;;;;24.37;16.00;;;-5.00;99.90;;;;;;4976616;28;20208;-54
2022/12/14 04:50:14;;;;;;;20.40;14.70;;;-5.00;99.90;;;;;;4976473;28;20240;-53
2022/12/14 04:52:44;;;;;;;23.20;16.07;;;-5.00;99.90;;;;;;4972503;28;20535;-53
2022/12/14 04:55:34;;;;;;;21.40;15.33;;;-4.90;99.90;;;;;;4976309;28;20631;-54
2022/12/14 04:58:14;;;;;;;25.20;16.17;;;-4.90;99.90;;;;;;4974459;28;20251;-54
2022/12/14 05:00:56;;;;;;;22.50;14.13;;;-4.90;99.90;;;;;;4975113;28;20205;-55
2022/12/14 05:03:31;;;;;;;24.13;15.77;;;-4.90;99.90;;;;;;4975883;28;20208;-54
2022/12/14 05:06:29;;;;;;;22.17;14.47;;;-4.90;99.90;;;;;;4972944;28;20258;-57
2022/12/14 05:09:16;;;;;;;25.33;15.10;;;-4.90;99.90;;;;;;4963891;28;20320;-53
2022/12/14 05:11:55;;;;;;;21.90;14.03;;;-5.00;99.90;;;;;;4974200;28;20674;-54
2022/12/14 05:14:36;;;;;;;24.43;16.27;;;-5.00;99.90;;;;;;4976214;28;20201;-55
2022/12/14 05:17:04;;;;;;;24.83;15.23;;;-5.00;99.90;;;;;;4971366;28;20294;-54
2022/12/14 05:19:29;;;;;;;27.37;14.53;;;-5.00;99.90;;;;;;4976017;28;20226;-55
2022/12/14 05:21:55;;;;;;;22.90;15.37;;;-5.00;99.90;;;;;;4976238;28;20808;-55
2022/12/14 05:24:20;;;;;;;23.20;15.53;;;-5.00;99.90;;;;;;4975657;28;20939;-55
2022/12/14 05:26:46;;;;;;;22.70;14.77;;;-5.10;99.90;;;;;;4976181;28;20278;-55
2022/12/14 05:29:12;;;;;;;22.03;15.20;;;-5.10;99.90;;;;;;4973472;28;20228;-55
2022/12/14 05:31:38;;;;;;;23.73;15.37;;;-5.10;99.90;;;;;;4975026;28;20213;-55
2022/12/14 05:34:04;;;;;;;23.33;15.20;;;-5.10;99.90;;;;;;4975569;28;20250;-55
2022/12/14 05:36:29;;;;;;;24.40;14.70;;;-5.10;99.90;;;;;;4975930;28;21066;-54
2022/12/14 05:39:03;;;;;;;18.47;14.20;;;-5.10;99.90;;;;;;4974930;28;20271;-55
2022/12/14 05:41:29;;;;;;;21.97;15.20;;;-5.10;99.90;;;;;;4972628;28;20228;-55
2022/12/14 05:43:55;;;;;;;26.77;15.87;;;-5.10;99.90;;;;;;4956614;28;20208;-54
2022/12/14 05:46:21;;;;;;;23.70;14.93;;;-5.20;99.90;;;;;;4973314;28;20201;-54
2022/12/14 05:48:48;;;;;;;20.37;14.13;;;-5.20;99.90;;;;;;4974671;28;20250;-54
2022/12/14 05:51:13;;;;;;;23.37;14.87;;;-5.20;99.90;;;;;;4975280;28;20200;-54
2022/12/14 05:53:39;;;;;;;19.90;13.73;;;-5.20;99.90;;;;;;4973650;28;20241;-54
2022/12/14 05:56:07;;;;;;;24.23;15.60;;;-5.20;99.90;;;;;;4975714;28;20211;-54
2022/12/14 05:58:33;;;;;;;24.90;15.97;;;-5.10;99.90;;;;;;4975892;28;20236;-55
2022/12/14 06:01:04;;;;;;;23.10;15.27;;;-5.10;99.90;;;;;;4975565;28;20259;-54
2022/12/14 06:03:30;;;;;;;20.93;14.80;;;-5.10;99.90;;;;;;4974042;28;20206;-55
2022/12/14 06:06:07;;;;;;;22.77;15.77;;;-5.10;99.90;;;;;;4975362;28;20677;-55
2022/12/14 06:08:34;;;;;;;20.87;15.23;;;-5.00;99.90;;;;;;4974644;28;20216;-55
2022/12/14 06:11:21;;;;;;;28.03;17.23;;;-5.00;99.90;;;;;;4974207;28;20673;-55
2022/12/14 06:13:47;;;;;;;20.80;14.77;;;-5.10;99.90;;;;;;4973142;28;20216;-55
2022/12/14 06:16:15;;;;;;;22.33;14.33;;;-5.10;99.90;;;;;;4973612;28;20193;-55
2022/12/14 06:18:43;;;;;;;20.53;15.13;;;-5.10;99.90;;;;;;4975228;28;20213;-55
2022/12/14 06:21:09;;;;;;;21.00;14.30;;;-5.20;99.90;;;;;;4975195;28;20971;-54
2022/12/14 06:23:35;;;;;;;21.67;16.07;;;-5.20;99.90;;;;;;4975445;28;20201;-55
2022/12/14 06:26:00;;;;;;;20.43;13.70;;;-5.30;99.90;;;;;;4976073;28;20697;-55
2022/12/14 06:28:26;;;;;;;26.20;16.10;;;-5.30;99.90;;;;;;4973549;28;20205;-55
2022/12/14 06:30:51;;;;;;;26.17;15.27;;;-5.30;99.90;;;;;;4975119;28;20670;-52
2022/12/14 06:33:17;;;;;;;24.53;16.60;;;-5.30;99.90;;;;;;4975228;28;20214;-54
2022/12/14 06:35:44;;;;;;;23.83;14.93;;;-5.30;99.90;;;;;;4975362;28;20258;-53
2022/12/14 06:38:10;;;;;;;22.77;14.60;;;-5.20;99.90;;;;;;4975034;28;20319;-53
2022/12/14 06:40:35;;;;;;;21.63;14.67;;;-5.20;99.90;;;;;;4973436;28;20287;-54
2022/12/14 06:43:01;;;;;;;21.37;13.90;;;-5.30;99.90;;;;;;4975029;28;20296;-53
2022/12/14 06:45:27;;;;;;;23.03;14.17;;;-5.30;99.90;;;;;;4975199;28;20204;-53
2022/12/14 06:47:53;;;;;;;22.43;14.03;;;-5.30;99.90;;;;;;4974999;28;20284;-52
2022/12/14 06:50:18;;;;;;;22.40;14.30;;;-5.30;99.90;;;;;;4974799;28;20217;-52
2022/12/14 06:52:48;;;;;;;21.60;15.13;;;-5.30;99.90;;;;;;4974937;28;20284;-54
2022/12/14 06:55:13;;;;;;;22.03;13.47;;;-5.30;99.90;;;;;;4971974;28;20275;-53
2022/12/14 06:57:39;;;;;;;19.17;13.67;;;-5.30;99.90;;;;;;4975132;28;20717;-54
2022/12/14 07:00:05;;;;;;;24.60;15.47;;;-5.30;99.90;;;;;;4974969;28;20208;-54
2022/12/14 07:02:30;;;;;;;19.93;13.93;;;-5.30;99.90;;;;;;4974700;28;20247;-54
2022/12/14 07:04:56;;;;;;;24.03;14.73;;;-5.30;99.90;;;;;;4973242;28;20208;-54
2022/12/14 07:07:21;;;;;;;23.70;14.90;;;-5.30;99.90;;;;;;4974775;28;20263;-55
2022/12/14 07:09:47;;;;;;;24.37;15.13;;;-5.30;99.90;;;;;;4974812;28;20565;-54
2022/12/14 07:12:12;;;;;;;30.50;15.13;;;-5.30;99.90;;;;;;4974913;28;20277;-54
2022/12/14 07:14:38;;;;;;;22.83;15.10;;;-5.30;99.90;;;;;;4974743;28;20253;-55
2022/12/14 07:17:04;;;;;;;22.43;13.83;;;-5.30;99.90;;;;;;4975261;28;20700;-54
2022/12/14 07:19:29;;;;;;;23.73;14.57;;;-5.30;99.90;;;;;;4973786;28;20200;-54
2022/12/14 07:21:54;;;;;;;18.70;13.27;;;-5.30;99.90;;;;;;4978279;28;20619;-55
2022/12/14 07:24:20;;;;;;;20.80;15.43;;;-5.40;99.90;;;;;;4978253;28;20200;-54
2022/12/14 07:26:45;;;;;;;16.30;11.63;;;-5.40;99.90;;;;;;4978597;28;20205;-54
2022/12/14 07:29:13;;;;;;;20.87;13.97;;;-5.40;99.90;;;;;;4977644;28;20252;-52
2022/12/14 07:31:39;;;;;;;17.53;13.07;;;-5.40;99.90;;;;;;4977613;28;21166;-54
2022/12/14 07:34:04;;;;;;;23.70;14.43;;;-5.30;99.90;;;;;;4976563;28;20460;-54
2022/12/14 07:36:31;;;;;;;23.57;15.13;;;-5.30;99.90;;;;;;4977984;28;20248;-53
2022/12/14 07:38:57;;;;;;;20.03;13.47;;;-5.30;99.90;;;;;;4978304;28;20983;-53
2022/12/14 07:41:29;;;;;;;23.50;15.00;;;-5.30;99.90;;;;;;4977707;28;20205;-54
2022/12/14 07:43:55;;;;;;;20.30;14.07;;;-5.20;99.90;;;;;;4976262;28;20212;-53
2022/12/14 07:46:23;;;;;;;24.23;14.50;;;-5.20;99.90;;;;;;4978105;28;20546;-54
2022/12/14 07:48:51;;;;;;;24.00;13.87;;;-5.20;99.90;;;;;;4977981;28;20216;-54
2022/12/14 07:51:19;;;;;;;19.90;13.07;;;-5.20;99.90;;;;;;4977874;28;21038;-53
2022/12/14 07:53:45;;;;;;;21.60;14.23;;;-5.10;99.90;;;;;;4977078;28;20239;-56
2022/12/14 07:56:14;;;;;;;19.07;12.87;;;-5.10;99.90;;;;;;4977261;28;20295;-53
2022/12/14 07:58:39;;;;;;;22.23;14.60;;;-5.10;99.90;;;;;;4977897;28;20295;-53
2022/12/14 08:01:23;;;;;;;19.93;12.97;;;-5.00;99.90;;;;;;4977583;28;20291;-53
2022/12/14 08:03:51;;;;;;;22.53;13.33;;;-5.00;99.90;;;;;;4975603;28;20201;-53
2022/12/14 08:06:19;;;;;;;23.80;14.33;;;-4.90;99.90;;;;;;4977718;28;20569;-53
2022/12/14 08:08:45;;;;;;;18.37;13.40;;;-4.90;99.90;;;;;;4977403;28;20732;-54
2022/12/14 08:11:12;;;;;;;19.60;13.10;;;-4.90;99.90;;;;;;4975735;28;20228;-55
2022/12/14 08:13:42;;;;;;;16.90;13.30;;;-4.90;99.90;;;;;;4977363;28;20215;-55
2022/12/14 08:16:13;;;;;;;20.30;13.07;;;-4.80;99.90;;;;;;4977323;28;20207;-54
2022/12/14 08:18:39;;;;;;;18.17;13.13;;;-4.80;99.90;;;;;;4976933;28;20200;-53
2022/12/14 08:21:06;;;;;;;19.53;13.33;;;-4.70;99.90;;;;;;4975392;28;20203;-55
2022/12/14 08:23:32;;;;;;;18.60;12.63;;;-4.70;99.90;;;;;;4977763;28;20263;-55
2022/12/14 08:25:59;;;;;;;20.33;13.67;;;-4.60;99.90;;;;;;4977056;28;20205;-55
2022/12/14 08:28:27;;;;;;;18.73;13.57;;;-4.50;99.90;;;;;;4976721;28;20292;-55
2022/12/14 08:30:53;;;;;;;24.03;14.67;;;-4.50;99.90;;;;;;4976406;28;20394;-54
2022/12/14 08:33:19;;;;;;;18.67;13.50;;;-4.50;99.90;;;;;;4975293;28;20256;-52
2022/12/14 08:35:45;;;;;;;18.83;12.73;;;-4.40;99.90;;;;;;4976736;28;20247;-54
2022/12/14 08:38:10;;;;;;;20.93;13.20;;;-4.40;99.90;;;;;;4976922;28;20224;-55
2022/12/14 08:40:37;;;;;;;23.30;14.13;;;-4.30;99.90;;;;;;4976685;28;20213;-53
2022/12/14 08:43:04;;;;;;;19.30;12.83;;;-4.30;99.90;;;;;;4976698;28;20208;-55
2022/12/14 08:45:30;;;;;;;20.23;13.33;;;-4.20;99.90;;;;;;4975069;28;20275;-55
2022/12/14 08:47:59;;;;;;;21.57;15.00;;;-4.20;99.90;;;;;;4976855;28;20213;-55
2022/12/14 08:50:25;;;;;;;20.33;13.33;;;-4.10;99.90;;;;;;4976094;28;20239;-54
2022/12/14 08:52:51;;;;;;;19.73;13.50;;;-4.10;99.90;;;;;;4976685;28;20205;-55
2022/12/14 08:55:17;;;;;;;21.53;13.63;;;-4.00;99.90;;;;;;4976659;28;20345;-53
2022/12/14 08:57:43;;;;;;;20.83;14.53;;;-3.90;99.90;;;;;;4974391;28;20675;-53
2022/12/14 09:00:09;;;;;;;19.10;12.40;;;-3.90;99.90;;;;;;4976209;28;20563;-57
2022/12/14 09:02:35;;;;;;;22.77;14.43;;;-3.80;99.90;;;;;;4977173;28;20208;-54
2022/12/14 09:05:00;;;;;;;19.93;13.00;;;-3.70;99.90;;;;;;4976703;28;20733;-54
2022/12/14 09:07:29;;;;;;;19.50;13.43;;;-3.70;99.90;;;;;;4974610;28;20299;-53
2022/12/14 09:09:55;;;;;;;18.07;12.10;;;-3.60;99.90;;;;;;4974225;28;20217;-54
2022/12/14 09:12:20;;;;;;;21.73;14.00;;;-3.60;99.90;;;;;;4975964;28;20207;-54
2022/12/14 09:14:48;;;;;;;21.43;13.53;;;-3.60;99.90;;;;;;4976186;28;20300;-54
2022/12/14 09:17:14;;;;;;;20.23;13.57;;;-3.60;99.90;;;;;;4976074;28;20205;-53
2022/12/14 09:19:40;;;;;;;18.97;13.00;;;-3.50;99.90;;;;;;4975081;28;20215;-54
2022/12/14 09:22:05;;;;;;;18.80;14.30;;;-3.50;99.90;;;;;;4975800;28;20208;-53
2022/12/14 09:24:31;;;;;;;19.23;13.13;;;-3.50;99.90;;;;;;4976134;28;20240;-53
2022/12/14 09:26:59;;;;;;;24.33;13.30;;;-3.50;99.90;;;;;;4975830;28;20238;-54
2022/12/14 09:29:24;;;;;;;21.90;14.03;;;-3.50;99.90;;;;;;4975830;28;20217;-54
2022/12/14 09:31:50;;;;;;;19.57;13.27;;;-3.50;99.90;;;;;;4975103;28;20219;-54
2022/12/14 09:34:16;;;;;;;20.40;13.27;;;-3.50;99.90;;;;;;4971445;28;20301;-54
2022/12/14 09:36:41;;;;;;;19.93;14.47;;;-3.40;99.90;;;;;;4975841;28;20587;-54
2022/12/14 09:39:07;;;;;;;23.50;14.20;;;-3.30;99.90;;;;;;4975539;28;20212;-54
2022/12/14 09:41:32;;;;;;;26.27;15.40;;;-3.30;99.90;;;;;;4975958;28;20217;-54
2022/12/14 09:44:04;;;;;;;20.53;12.60;;;-3.30;99.90;;;;;;4975369;28;21305;-54
2022/12/14 09:46:41;;;;;;;23.33;14.60;;;-3.10;99.90;;;;;;4974828;28;20215;-54
2022/12/14 09:49:30;;;;;;;21.97;13.53;;;-3.20;99.90;;;;;;4975005;28;20220;-54
2022/12/14 09:52:00;;;;;;;20.07;13.03;;;-3.20;99.90;;;;;;4975575;28;20197;-54
2022/12/14 09:54:28;;;;;;;19.37;14.07;;;-3.10;99.90;;;;;;4975257;28;20264;-53
2022/12/14 09:56:58;;;;;;;17.60;13.57;;;-3.10;99.90;;;;;;4973056;28;20841;-54
2022/12/14 09:59:26;;;;;;;19.47;13.07;;;-3.00;99.90;;;;;;4975797;28;20213;-54
2022/12/14 10:02:04;;;;;;;16.43;12.93;;;-2.90;99.90;;;;;;4975688;28;20619;-53
2022/12/14 10:04:46;;;;;;;18.70;13.37;;;-2.90;99.90;;;;;;4973871;28;20287;-55
2022/12/14 10:07:32;;;;;;;22.10;12.97;;;-2.80;99.90;;;;;;4975340;28;20311;-54
2022/12/14 10:10:13;;;;;;;17.23;12.80;;;-2.80;99.90;;;;;;4972390;28;20316;-54
2022/12/14 10:12:52;;;;;;;18.77;13.90;;;-2.70;99.90;;;;;;4972958;28;20212;-55
2022/12/14 10:15:53;;;;;;;18.80;14.10;;;-2.60;99.90;;;;;;4975236;28;20215;-54
2022/12/14 10:18:43;;;;;;;20.23;13.03;;;-2.40;99.90;;;;;;4975557;28;20203;-54
2022/12/14 10:21:13;;;;;;;19.70;13.67;;;-2.30;99.90;;;;;;4973160;28;20292;-54
2022/12/14 10:23:51;;;;;;;19.20;13.47;;;-2.20;99.90;;;;;;4973145;28;20630;-54
2022/12/14 10:26:19;;;;;;;22.60;14.07;;;-2.10;99.90;;;;;;4975027;28;20256;-54
2022/12/14 10:29:11;;;;;;;20.07;13.70;;;-1.90;99.90;;;;;;4975062;28;20218;-55
2022/12/14 10:31:51;;;;;;;18.87;13.40;;;-1.80;99.90;;;;;;4974833;28;20209;-55
2022/12/14 10:34:19;;;;;;;20.47;14.10;;;-1.70;99.90;;;;;;4974923;28;20205;-53
2022/12/14 10:37:10;;;;;;;20.47;11.93;;;-1.60;99.90;;;;;;4977224;28;20229;-53
2022/12/14 10:39:54;;;;;;;21.97;13.47;;;-1.60;99.90;;;;;;4983053;28;20243;-54
2022/12/14 10:42:44;;;;;;;18.23;13.10;;;-1.40;99.90;;;;;;4983471;28;20205;-54
2022/12/14 10:45:20;;;;;;;15.23;12.43;;;-1.40;99.90;;;;;;4981894;28;20246;-54
2022/12/14 10:47:50;;;;;;;19.17;12.60;;;-1.40;99.90;;;;;;4980727;28;20204;-60
2022/12/14 10:50:41;;;;;;;20.60;13.17;;;-1.40;99.90;;;;;;4982783;28;20221;-60
2022/12/14 10:53:16;;;;;;;19.90;12.77;;;-1.50;99.90;;;;;;4979470;28;20231;-59
2022/12/14 10:55:43;;;;;;;18.37;13.23;;;-1.40;99.90;;;;;;4974196;28;20313;-59
2022/12/14 10:58:11;;;;;;;17.30;12.20;;;-1.40;99.90;;;;;;4978370;28;20234;-60
2022/12/14 11:00:36;;;;;;;17.67;13.43;;;-1.30;99.90;;;;;;4984123;28;20273;-69
2022/12/14 11:03:10;;;;;;;18.30;13.63;;;-1.20;99.90;;;;;;4978963;28;20201;-58
2022/12/14 11:05:52;;;;;;;17.70;12.30;;;-0.90;99.90;;;;;;4979784;28;20224;-56
2022/12/14 11:08:45;;;;;;;20.10;13.43;;;-0.80;99.90;;;;;;4978093;28;20216;-55
2022/12/14 11:11:20;;;;;;;20.17;12.67;;;-0.80;99.90;;;;;;4975456;28;20583;-56
2022/12/14 11:13:52;;;;;;;18.77;12.83;;;-0.80;99.90;;;;;;4974849;28;20209;-59
2022/12/14 11:16:34;;;;;;;18.70;12.47;;;-0.60;99.90;;;;;;4978257;28;20221;-56
2022/12/14 11:19:02;;;;;;;16.90;12.23;;;-0.40;99.90;;;;;;4977942;28;20989;-57
2022/12/14 11:21:30;;;;;;;24.73;13.60;;;-0.30;99.90;;;;;;4978039;28;20302;-57
2022/12/14 11:23:55;;;;;;;17.10;12.83;;;-0.30;99.90;;;;;;4977803;28;20356;-62
2022/12/14 11:26:28;;;;;;;19.63;14.00;;;-0.20;99.90;;;;;;4976029;28;20695;-63
2022/12/14 11:28:56;;;;;;;18.47;13.53;;;-0.20;99.90;;;;;;4977832;28;20235;-64
2022/12/14 11:31:32;;;;;;;16.20;13.80;;;-0.50;99.90;;;;;;4978031;28;20233;-63
2022/12/14 11:34:00;;;;;;;21.73;13.53;;;-0.40;99.90;;;;;;4973845;28;20203;-61
2022/12/14 11:36:34;;;;;;;17.67;13.33;;;-0.40;99.90;;;;;;4978000;28;20348;-65
2022/12/14 11:39:26;;;;;;;20.17;13.07;;;-0.40;99.90;;;;;;4978262;28;20296;-62
2022/12/14 11:41:57;;;;;;;18.87;13.67;;;-0.40;99.90;;;;;;4973054;28;20201;-64
2022/12/14 11:44:26;;;;;;;17.70;12.40;;;-0.40;99.90;;;;;;4976262;28;20657;-64
2022/12/14 11:46:57;;;;;;;19.90;13.47;;;-0.40;99.90;;;;;;4977989;28;20214;-65
2022/12/14 11:49:39;;;;;;;20.07;12.73;;;-0.40;99.90;;;;;;4977681;28;20229;-64
2022/12/14 11:52:04;;;;;;;18.07;13.23;;;-0.50;99.90;;;;;;4974310;28;20202;-63
2022/12/14 11:54:38;;;;;;;17.47;13.37;;;-0.50;99.90;;;;;;4978147;28;20205;-62
2022/12/14 11:57:13;;;;;;;19.57;11.60;;;-0.50;99.90;;;;;;4977172;28;20786;-62
2022/12/14 11:59:46;;;;;;;15.20;12.00;;;-0.40;99.90;;;;;;4974770;28;20220;-62
2022/12/14 12:02:21;;;;;;;21.47;12.53;;;-0.40;99.90;;;;;;4977462;28;20493;-62
2022/12/14 12:04:51;;;;;;;17.20;12.03;;;-0.40;99.90;;;;;;4973879;28;20306;-62
2022/12/14 12:07:25;;;;;;;19.23;12.97;;;-0.40;99.90;;;;;;4977257;28;20236;-62
2022/12/14 12:09:50;;;;;;;18.90;12.63;;;-0.40;99.90;;;;;;4976631;28;20225;-62
2022/12/14 12:12:18;;;;;;;20.87;12.63;;;-0.30;99.90;;;;;;4974980;28;20257;-62
2022/12/14 12:14:46;;;;;;;17.27;12.80;;;-0.10;99.90;;;;;;4977303;28;20289;-61
2022/12/14 12:17:24;;;;;;;17.53;13.77;;;0.20;99.90;;;;;;4977414;28;20211;-63
2022/12/14 12:19:51;;;;;;;20.50;13.53;;;0.20;99.90;;;;;;4975313;28;20201;-62
2022/12/14 12:22:19;;;;;;;18.70;12.57;;;0.20;99.90;;;;;;4977491;28;20238;-62
2022/12/14 12:25:04;;;;;;;17.07;11.90;;;0.10;99.90;;;;;;4975947;28;20605;-64
2022/12/14 12:27:31;;;;;;;17.90;12.93;;;-0.10;99.90;;;;;;4972996;28;20238;-62
2022/12/14 12:30:19;;;;;;;16.67;11.57;;;-0.10;99.90;;;;;;4966041;28;20224;-63
2022/12/14 12:32:51;;;;;;;18.50;12.50;;;-0.10;99.90;;;;;;4972470;28;20244;-64
2022/12/14 12:35:48;;;;;;;16.93;12.80;;;0.10;99.90;;;;;;4975340;28;20235;-61
2022/12/14 12:38:22;;;;;;;16.13;12.13;;;0.10;99.90;;;;;;4973880;28;20306;-63
2022/12/14 12:41:09;;;;;;;18.87;13.03;;;-0.10;99.90;;;;;;4974473;28;20209;-63
2022/12/14 12:43:41;;;;;;;23.03;12.90;;;-0.30;99.90;;;;;;4966003;28;20202;-61
2022/12/14 12:46:17;;;;;;;20.00;13.67;;;-0.50;99.90;;;;;;4973925;28;20216;-61
2022/12/14 12:48:50;;;;;;;19.83;13.67;;;-0.70;99.90;;;;;;4974981;28;20215;-61
2022/12/14 12:51:21;;;;;;;17.50;12.33;;;-0.90;99.90;;;;;;4969046;28;20611;-62
2022/12/14 12:53:52;;;;;;;16.50;12.70;;;-1.00;99.90;;;;;;4975418;28;20213;-59
2022/12/14 12:56:26;;;;;;;18.23;12.47;;;-1.00;99.90;;;;;;4974971;28;20244;-60
2022/12/14 12:58:52;;;;;;;16.27;12.83;;;-0.90;99.90;;;;;;4971889;28;20205;-61
2022/12/14 13:01:31;;;;;;;18.27;13.37;;;-0.90;99.90;;;;;;4974409;28;20458;-62
2022/12/14 13:04:02;;;;;;;17.77;12.97;;;-0.90;99.90;;;;;;4966885;28;20208;-61
2022/12/14 13:06:43;;;;;;;16.37;12.40;;;-0.90;99.90;;;;;;4973723;28;20576;-61